sensor_id;sensor_type;location;lat;lon;timestamp;pressure;altitude;pressure_sealevel;temperature;humidity
63568;BME280;49715;42.386;20.434;2023-02-16T00:01:28;98788.50;;;-0.55;54.02
63568;BME280;49715;42.386;20.434;2023-02-16T00:03:55;98789.41;;;-0.56;53.57
63568;BME280;49715;42.386;20.434;2023-02-16T00:06:25;98787.78;;;-0.58;53.79
63568;BME280;49715;42.386;20.434;2023-02-16T00:08:52;98787.06;;;-0.63;53.75
63568;BME280;49715;42.386;20.434;2023-02-16T00:11:27;98783.66;;;-0.65;53.75
63568;BME280;49715;42.386;20.434;2023-02-16T00:14:12;98781.06;;;-0.65;53.78
63568;BME280;49715;42.386;20.434;2023-02-16T00:16:40;98782.03;;;-0.68;53.54
63568;BME280;49715;42.386;20.434;2023-02-16T00:21:56;98783.09;;;-0.75;54.28
63568;BME280;49715;42.386;20.434;2023-02-16T00:24:23;98789.19;;;-0.76;54.03
63568;BME280;49715;42.386;20.434;2023-02-16T00:26:51;98796.16;;;-0.78;53.88
63568;BME280;49715;42.386;20.434;2023-02-16T00:29:28;98792.00;;;-0.84;53.90
63568;BME280;49715;42.386;20.434;2023-02-16T00:31:56;98795.63;;;-0.89;54.24
63568;BME280;49715;42.386;20.434;2023-02-16T00:34:27;98789.59;;;-0.90;54.24
63568;BME280;49715;42.386;20.434;2023-02-16T00:36:54;98788.81;;;-0.92;53.77
63568;BME280;49715;42.386;20.434;2023-02-16T00:39:23;98782.06;;;-0.97;54.33
63568;BME280;49715;42.386;20.434;2023-02-16T00:41:53;98788.19;;;-1.00;55.09
63568;BME280;49715;42.386;20.434;2023-02-16T00:44:23;98786.44;;;-0.99;54.96
63568;BME280;49715;42.386;20.434;2023-02-16T00:46:50;98771.81;;;-1.00;54.38
63568;BME280;49715;42.386;20.434;2023-02-16T00:49:17;98773.69;;;-1.06;53.87
63568;BME280;49715;42.386;20.434;2023-02-16T00:51:46;98769.56;;;-1.13;54.55
63568;BME280;49715;42.386;20.434;2023-02-16T00:54:12;98770.59;;;-1.18;54.46
63568;BME280;49715;42.386;20.434;2023-02-16T00:56:39;98775.91;;;-1.23;55.15
63568;BME280;49715;42.386;20.434;2023-02-16T00:59:08;98763.94;;;-1.25;55.17
63568;BME280;49715;42.386;20.434;2023-02-16T01:01:36;98765.63;;;-1.24;54.39
63568;BME280;49715;42.386;20.434;2023-02-16T01:04:03;98767.34;;;-1.25;55.78
63568;BME280;49715;42.386;20.434;2023-02-16T01:06:30;98763.03;;;-1.24;55.43
63568;BME280;49715;42.386;20.434;2023-02-16T01:09:16;98766.41;;;-1.22;55.05
63568;BME280;49715;42.386;20.434;2023-02-16T01:12:01;98761.22;;;-1.21;54.32
63568;BME280;49715;42.386;20.434;2023-02-16T01:14:28;98763.03;;;-1.24;54.24
63568;BME280;49715;42.386;20.434;2023-02-16T01:16:55;98758.03;;;-1.31;54.92
63568;BME280;49715;42.386;20.434;2023-02-16T01:19:21;98757.34;;;-1.36;53.68
63568;BME280;49715;42.386;20.434;2023-02-16T01:21:48;98752.41;;;-1.45;54.88
63568;BME280;49715;42.386;20.434;2023-02-16T01:24:14;98754.31;;;-1.51;54.59
63568;BME280;49715;42.386;20.434;2023-02-16T01:26:41;98746.66;;;-1.54;55.91
63568;BME280;49715;42.386;20.434;2023-02-16T01:29:16;98748.41;;;-1.57;55.72
63568;BME280;49715;42.386;20.434;2023-02-16T01:31:43;98735.50;;;-1.57;55.65
63568;BME280;49715;42.386;20.434;2023-02-16T01:34:09;98735.50;;;-1.57;55.54
63568;BME280;49715;42.386;20.434;2023-02-16T01:36:42;98739.81;;;-1.56;56.06
63568;BME280;49715;42.386;20.434;2023-02-16T01:39:12;98738.00;;;-1.53;55.38
63568;BME280;49715;42.386;20.434;2023-02-16T01:44:10;98752.69;;;-1.54;55.16
63568;BME280;49715;42.386;20.434;2023-02-16T01:46:38;98738.97;;;-1.56;54.95
63568;BME280;49715;42.386;20.434;2023-02-16T01:49:14;98734.75;;;-1.60;54.80
63568;BME280;49715;42.386;20.434;2023-02-16T01:54:17;98745.22;;;-1.65;55.26
63568;BME280;49715;42.386;20.434;2023-02-16T01:56:49;98736.63;;;-1.65;55.58
63568;BME280;49715;42.386;20.434;2023-02-16T01:59:31;98723.66;;;-1.64;55.25
63568;BME280;49715;42.386;20.434;2023-02-16T02:02:04;98725.34;;;-1.63;55.59
63568;BME280;49715;42.386;20.434;2023-02-16T02:04:44;98723.56;;;-1.61;54.82
63568;BME280;49715;42.386;20.434;2023-02-16T02:07:33;98722.69;;;-1.61;55.26
63568;BME280;49715;42.386;20.434;2023-02-16T02:10:04;98723.56;;;-1.61;55.00
63568;BME280;49715;42.386;20.434;2023-02-16T02:12:36;98717.50;;;-1.60;54.72
63568;BME280;49715;42.386;20.434;2023-02-16T02:15:08;98714.94;;;-1.61;54.85
63568;BME280;49715;42.386;20.434;2023-02-16T02:17:37;98716.66;;;-1.60;54.70
63568;BME280;49715;42.386;20.434;2023-02-16T02:28:32;98721.19;;;-1.68;55.07
63568;BME280;49715;42.386;20.434;2023-02-16T02:31:09;98717.81;;;-1.70;55.07
63568;BME280;49715;42.386;20.434;2023-02-16T02:38:55;98715.22;;;-1.70;54.51
63568;BME280;49715;42.386;20.434;2023-02-16T02:44:29;98719.69;;;-1.75;55.07
63568;BME280;49715;42.386;20.434;2023-02-16T02:46:56;98716.38;;;-1.80;55.34
63568;BME280;49715;42.386;20.434;2023-02-16T02:49:23;98715.63;;;-1.86;55.08
63568;BME280;49715;42.386;20.434;2023-02-16T02:51:49;98725.25;;;-1.91;55.75
63568;BME280;49715;42.386;20.434;2023-02-16T02:54:17;98724.53;;;-1.96;54.62
63568;BME280;49715;42.386;20.434;2023-02-16T02:57:21;98731.69;;;-2.05;55.11
63568;BME280;49715;42.386;20.434;2023-02-16T03:00:19;98736.25;;;-2.15;55.07
63568;BME280;49715;42.386;20.434;2023-02-16T03:03:06;98733.78;;;-2.20;55.68
63568;BME280;49715;42.386;20.434;2023-02-16T03:05:35;98724.44;;;-2.24;54.89
63568;BME280;49715;42.386;20.434;2023-02-16T03:08:12;98724.63;;;-2.31;55.16
63568;BME280;49715;42.386;20.434;2023-02-16T03:10:47;98728.28;;;-2.40;55.62
63568;BME280;49715;42.386;20.434;2023-02-16T03:13:35;98729.28;;;-2.46;56.46
63568;BME280;49715;42.386;20.434;2023-02-16T03:16:03;98731.88;;;-2.46;56.62
63568;BME280;49715;42.386;20.434;2023-02-16T03:18:32;98734.41;;;-2.44;57.05
63568;BME280;49715;42.386;20.434;2023-02-16T03:21:19;98730.06;;;-2.42;56.66
63568;BME280;49715;42.386;20.434;2023-02-16T03:24:04;98725.75;;;-2.42;56.31
63568;BME280;49715;42.386;20.434;2023-02-16T03:26:51;98730.91;;;-2.42;56.64
63568;BME280;49715;42.386;20.434;2023-02-16T03:29:37;98726.53;;;-2.38;56.26
63568;BME280;49715;42.386;20.434;2023-02-16T03:32:04;98729.09;;;-2.38;55.88
63568;BME280;49715;42.386;20.434;2023-02-16T03:34:30;98717.94;;;-2.39;56.18
63568;BME280;49715;42.386;20.434;2023-02-16T03:36:57;98723.94;;;-2.38;56.63
63568;BME280;49715;42.386;20.434;2023-02-16T03:39:26;98723.09;;;-2.39;56.58
63568;BME280;49715;42.386;20.434;2023-02-16T03:41:54;98721.31;;;-2.37;55.96
63568;BME280;49715;42.386;20.434;2023-02-16T03:44:20;98719.56;;;-2.36;55.43
63568;BME280;49715;42.386;20.434;2023-02-16T03:46:47;98716.31;;;-2.43;55.12
63568;BME280;49715;42.386;20.434;2023-02-16T03:49:16;98714.75;;;-2.50;55.74
63568;BME280;49715;42.386;20.434;2023-02-16T03:51:43;98714.00;;;-2.53;55.77
63568;BME280;49715;42.386;20.434;2023-02-16T03:54:10;98713.28;;;-2.58;56.06
63568;BME280;49715;42.386;20.434;2023-02-16T03:56:37;98706.50;;;-2.64;56.27
63568;BME280;49715;42.386;20.434;2023-02-16T03:59:03;98712.59;;;-2.67;56.33
63568;BME280;49715;42.386;20.434;2023-02-16T04:01:29;98714.41;;;-2.70;56.26
63568;BME280;49715;42.386;20.434;2023-02-16T04:03:56;98710.13;;;-2.71;56.12
63568;BME280;49715;42.386;20.434;2023-02-16T04:06:22;98717.03;;;-2.73;56.64
63568;BME280;49715;42.386;20.434;2023-02-16T04:08:48;98705.22;;;-2.82;56.89
63568;BME280;49715;42.386;20.434;2023-02-16T04:11:15;98715.41;;;-2.76;56.47
63568;BME280;49715;42.386;20.434;2023-02-16T04:14:00;98715.47;;;-2.79;55.27
63568;BME280;49715;42.386;20.434;2023-02-16T04:16:26;98708.72;;;-2.83;56.70
63568;BME280;49715;42.386;20.434;2023-02-16T04:18:52;98706.19;;;-2.86;56.78
63568;BME280;49715;42.386;20.434;2023-02-16T04:21:18;98712.13;;;-2.82;56.98
63568;BME280;49715;42.386;20.434;2023-02-16T04:23:45;98706.97;;;-2.82;56.42
63568;BME280;49715;42.386;20.434;2023-02-16T04:26:11;98706.91;;;-2.81;56.29
63568;BME280;49715;42.386;20.434;2023-02-16T04:28:37;98708.66;;;-2.81;56.90
63568;BME280;49715;42.386;20.434;2023-02-16T04:31:03;98708.59;;;-2.80;56.96
63568;BME280;49715;42.386;20.434;2023-02-16T04:33:29;98704.28;;;-2.78;56.36
63568;BME280;49715;42.386;20.434;2023-02-16T04:35:55;98708.56;;;-2.77;56.65
63568;BME280;49715;42.386;20.434;2023-02-16T04:38:23;98705.88;;;-2.74;56.76
63568;BME280;49715;42.386;20.434;2023-02-16T04:40:50;98701.53;;;-2.72;57.09
63568;BME280;49715;42.386;20.434;2023-02-16T04:43:17;98701.50;;;-2.70;56.56
63568;BME280;49715;42.386;20.434;2023-02-16T04:45:43;98696.34;;;-2.70;55.92
63568;BME280;49715;42.386;20.434;2023-02-16T04:48:09;98715.25;;;-2.70;56.19
63568;BME280;49715;42.386;20.434;2023-02-16T04:50:35;98705.84;;;-2.72;56.20
63568;BME280;49715;42.386;20.434;2023-02-16T04:53:02;98704.13;;;-2.73;56.58
63568;BME280;49715;42.386;20.434;2023-02-16T04:55:28;98707.59;;;-2.73;56.25
63568;BME280;49715;42.386;20.434;2023-02-16T04:57:55;98702.44;;;-2.73;56.24
63568;BME280;49715;42.386;20.434;2023-02-16T05:00:21;98705.91;;;-2.75;56.54
63568;BME280;49715;42.386;20.434;2023-02-16T05:02:48;98712.88;;;-2.77;55.73
63568;BME280;49715;42.386;20.434;2023-02-16T05:05:14;98715.50;;;-2.80;55.90
63568;BME280;49715;42.386;20.434;2023-02-16T05:07:41;98724.19;;;-2.85;56.37
63568;BME280;49715;42.386;20.434;2023-02-16T05:10:07;98722.56;;;-2.87;56.08
63568;BME280;49715;42.386;20.434;2023-02-16T05:12:34;98726.94;;;-2.91;56.32
63568;BME280;49715;42.386;20.434;2023-02-16T05:15:19;98721.03;;;-2.96;56.09
63568;BME280;49715;42.386;20.434;2023-02-16T05:17:45;98726.25;;;-2.99;56.91
63568;BME280;49715;42.386;20.434;2023-02-16T05:20:11;98725.44;;;-3.01;56.49
63568;BME280;49715;42.386;20.434;2023-02-16T05:22:38;98729.78;;;-3.03;56.17
63568;BME280;49715;42.386;20.434;2023-02-16T05:25:05;98732.44;;;-3.06;56.66
63568;BME280;49715;42.386;20.434;2023-02-16T05:27:31;98726.47;;;-3.08;56.45
63568;BME280;49715;42.386;20.434;2023-02-16T05:29:58;98728.34;;;-3.15;55.83
63568;BME280;49715;42.386;20.434;2023-02-16T05:32:24;98723.31;;;-3.21;56.44
63568;BME280;49715;42.386;20.434;2023-02-16T05:34:51;98724.22;;;-3.23;55.95
63568;BME280;49715;42.386;20.434;2023-02-16T05:37:18;98726.03;;;-3.27;56.68
63568;BME280;49715;42.386;20.434;2023-02-16T05:39:44;98726.94;;;-3.29;56.36
63568;BME280;49715;42.386;20.434;2023-02-16T05:42:10;98735.56;;;-3.32;57.09
63568;BME280;49715;42.386;20.434;2023-02-16T05:44:38;98738.16;;;-3.32;56.44
63568;BME280;49715;42.386;20.434;2023-02-16T05:47:04;98735.56;;;-3.32;56.03
63568;BME280;49715;42.386;20.434;2023-02-16T05:49:30;98740.81;;;-3.35;56.91
63568;BME280;49715;42.386;20.434;2023-02-16T05:51:57;98743.34;;;-3.33;57.30
63568;BME280;49715;42.386;20.434;2023-02-16T05:54:23;98749.31;;;-3.30;57.26
63568;BME280;49715;42.386;20.434;2023-02-16T05:56:50;98746.69;;;-3.28;55.58
63568;BME280;49715;42.386;20.434;2023-02-16T05:59:17;98748.41;;;-3.29;56.62
63568;BME280;49715;42.386;20.434;2023-02-16T06:01:43;98748.41;;;-3.29;56.75
63568;BME280;49715;42.386;20.434;2023-02-16T06:04:12;98750.09;;;-3.28;56.35
63568;BME280;49715;42.386;20.434;2023-02-16T06:06:39;98755.25;;;-3.26;56.69
63568;BME280;49715;42.386;20.434;2023-02-16T06:09:06;98755.25;;;-3.26;56.78
63568;BME280;49715;42.386;20.434;2023-02-16T06:11:33;98756.91;;;-3.24;56.49
63568;BME280;49715;42.386;20.434;2023-02-16T06:14:03;98729.75;;;-3.40;56.75
63568;BME280;49715;42.386;20.434;2023-02-16T06:16:31;98758.63;;;-3.24;56.54
63568;BME280;49715;42.386;20.434;2023-02-16T06:18:58;98751.78;;;-3.25;57.00
63568;BME280;49715;42.386;20.434;2023-02-16T06:21:24;98756.81;;;-3.19;57.11
63568;BME280;49715;42.386;20.434;2023-02-16T06:23:51;98755.81;;;-3.12;57.15
63568;BME280;49715;42.386;20.434;2023-02-16T06:26:19;98757.41;;;-3.08;56.82
63568;BME280;49715;42.386;20.434;2023-02-16T06:28:45;98747.84;;;-3.03;56.72
63568;BME280;49715;42.386;20.434;2023-02-16T06:31:12;98760.56;;;-2.95;57.21
63568;BME280;49715;42.386;20.434;2023-02-16T06:33:38;98751.78;;;-2.88;57.87
63568;BME280;49715;42.386;20.434;2023-02-16T06:36:05;98761.16;;;-2.82;57.27
63568;BME280;49715;42.386;20.434;2023-02-16T06:38:31;98752.44;;;-2.78;58.06
63568;BME280;49715;42.386;20.434;2023-02-16T06:40:58;98754.03;;;-2.73;56.77
63568;BME280;49715;42.386;20.434;2023-02-16T06:43:24;98759.91;;;-2.66;56.52
63568;BME280;49715;42.386;20.434;2023-02-16T06:45:50;98756.31;;;-2.61;56.21
63568;BME280;49715;42.386;20.434;2023-02-16T06:48:18;98753.69;;;-2.57;55.23
63568;BME280;49715;42.386;20.434;2023-02-16T06:50:44;98758.00;;;-2.58;56.15
63568;BME280;49715;42.386;20.434;2023-02-16T06:53:10;98755.31;;;-2.55;56.53
63568;BME280;49715;42.386;20.434;2023-02-16T06:55:37;98759.53;;;-2.51;56.86
63568;BME280;49715;42.386;20.434;2023-02-16T06:58:03;98759.38;;;-2.45;58.08
63568;BME280;49715;42.386;20.434;2023-02-16T07:00:33;98762.56;;;-2.34;56.46
63568;BME280;49715;42.386;20.434;2023-02-16T07:02:59;98761.44;;;-2.25;56.04
63568;BME280;49715;42.386;20.434;2023-02-16T07:05:26;98762.97;;;-2.16;57.15
63568;BME280;49715;42.386;20.434;2023-02-16T07:08:01;98767.84;;;-2.05;57.24
63568;BME280;49715;42.386;20.434;2023-02-16T07:10:43;98766.69;;;-1.94;57.88
63568;BME280;49715;42.386;20.434;2023-02-16T07:13:10;98768.94;;;-1.82;57.19
63568;BME280;49715;42.386;20.434;2023-02-16T07:15:52;98767.72;;;-1.68;57.20
63568;BME280;49715;42.386;20.434;2023-02-16T07:18:27;98758.75;;;-1.57;56.78
63568;BME280;49715;42.386;20.434;2023-02-16T07:20:53;98770.56;;;-1.46;56.55
63568;BME280;49715;42.386;20.434;2023-02-16T07:23:20;98764.25;;;-1.38;57.28
63568;BME280;49715;42.386;20.434;2023-02-16T07:25:46;98765.81;;;-1.31;56.64
63568;BME280;49715;42.386;20.434;2023-02-16T07:28:13;98761.38;;;-1.27;56.44
63568;BME280;49715;42.386;20.434;2023-02-16T07:30:42;98764.59;;;-1.19;57.12
63568;BME280;49715;42.386;20.434;2023-02-16T07:33:08;98760.81;;;-1.09;57.43
63568;BME280;49715;42.386;20.434;2023-02-16T07:35:36;98757.06;;;-0.98;56.81
63568;BME280;49715;42.386;20.434;2023-02-16T07:38:04;98765.41;;;-0.89;54.20
63568;BME280;49715;42.386;20.434;2023-02-16T07:40:31;98761.03;;;-0.87;56.56
63568;BME280;49715;42.386;20.434;2023-02-16T07:42:58;98761.63;;;-0.79;56.91
63568;BME280;49715;42.386;20.434;2023-02-16T07:45:27;98763.78;;;-0.65;56.73
63568;BME280;49715;42.386;20.434;2023-02-16T07:47:57;98755.59;;;-0.51;57.21
63568;BME280;49715;42.386;20.434;2023-02-16T07:50:23;98752.00;;;-0.47;56.11
63568;BME280;49715;42.386;20.434;2023-02-16T07:52:50;98753.19;;;-0.31;56.36
63568;BME280;49715;42.386;20.434;2023-02-16T07:55:16;98757.97;;;-0.18;56.27
63568;BME280;49715;42.386;20.434;2023-02-16T07:57:42;98759.19;;;-0.04;56.10
63568;BME280;49715;42.386;20.434;2023-02-16T08:00:09;98756.06;;;0.12;56.15
63568;BME280;49715;42.386;20.434;2023-02-16T08:02:39;98766.75;;;0.28;55.58
63568;BME280;49715;42.386;20.434;2023-02-16T08:05:06;98752.53;;;0.39;57.03
63568;BME280;49715;42.386;20.434;2023-02-16T08:07:32;98758.16;;;0.50;55.37
63568;BME280;49715;42.386;20.434;2023-02-16T08:09:58;98763.69;;;0.65;54.92
63568;BME280;49715;42.386;20.434;2023-02-16T08:12:26;98754.59;;;0.76;54.96
63568;BME280;49715;42.386;20.434;2023-02-16T08:14:52;98756.75;;;0.89;55.42
63568;BME280;49715;42.386;20.434;2023-02-16T08:17:19;98753.81;;;0.98;56.31
63568;BME280;49715;42.386;20.434;2023-02-16T08:19:45;98735.66;;;0.96;57.75
63568;BME280;49715;42.386;20.434;2023-02-16T08:22:11;98745.44;;;1.12;55.55
63568;BME280;49715;42.386;20.434;2023-02-16T08:24:38;98746.75;;;1.23;54.94
63568;BME280;49715;42.386;20.434;2023-02-16T08:27:05;98740.22;;;1.35;54.67
63568;BME280;49715;42.386;20.434;2023-02-16T08:29:31;98750.03;;;1.49;54.53
63568;BME280;49715;42.386;20.434;2023-02-16T08:31:58;98740.56;;;1.48;54.91
63568;BME280;49715;42.386;20.434;2023-02-16T08:34:25;98750.34;;;1.63;54.13
63568;BME280;49715;42.386;20.434;2023-02-16T08:36:53;98760.47;;;1.69;56.13
63568;BME280;49715;42.386;20.434;2023-02-16T08:39:23;98746.38;;;1.75;55.30
63568;BME280;49715;42.386;20.434;2023-02-16T08:41:51;98750.22;;;1.87;54.41
63568;BME280;49715;42.386;20.434;2023-02-16T08:44:18;98749.66;;;2.00;53.67
63568;BME280;49715;42.386;20.434;2023-02-16T08:46:47;98744.75;;;2.13;53.71
63568;BME280;49715;42.386;20.434;2023-02-16T08:49:14;98758.09;;;2.26;53.75
63568;BME280;49715;42.386;20.434;2023-02-16T08:51:43;98749.75;;;2.38;53.22
63568;BME280;49715;42.386;20.434;2023-02-16T08:54:15;98743.94;;;2.52;53.55
63568;BME280;49715;42.386;20.434;2023-02-16T08:56:42;98738.19;;;2.64;53.17
63568;BME280;49715;42.386;20.434;2023-02-16T08:59:16;98729.88;;;2.75;53.03
63568;BME280;49715;42.386;20.434;2023-02-16T09:01:43;98732.72;;;2.89;52.87
63568;BME280;49715;42.386;20.434;2023-02-16T09:04:10;98729.47;;;3.03;52.71
63568;BME280;49715;42.386;20.434;2023-02-16T09:06:39;98726.06;;;3.20;51.48
63568;BME280;49715;42.386;20.434;2023-02-16T09:09:06;98727.16;;;3.33;52.33
63568;BME280;49715;42.386;20.434;2023-02-16T09:11:34;98729.09;;;3.47;52.13
63568;BME280;49715;42.386;20.434;2023-02-16T09:14:02;98726.63;;;3.61;52.49
63568;BME280;49715;42.386;20.434;2023-02-16T09:16:31;98732.03;;;3.75;51.77
63568;BME280;49715;42.386;20.434;2023-02-16T09:19:00;98725.41;;;3.85;52.01
63568;BME280;49715;42.386;20.434;2023-02-16T09:21:28;98731.94;;;3.94;52.22
63568;BME280;49715;42.386;20.434;2023-02-16T09:23:58;98719.50;;;3.99;52.24
63568;BME280;49715;42.386;20.434;2023-02-16T09:26:26;98718.28;;;4.06;51.91
63568;BME280;49715;42.386;20.434;2023-02-16T09:28:55;98717.75;;;4.17;51.24
63568;BME280;49715;42.386;20.434;2023-02-16T09:31:23;98728.47;;;4.28;50.86
63568;BME280;49715;42.386;20.434;2023-02-16T09:33:53;98730.69;;;4.36;50.94
63568;BME280;49715;42.386;20.434;2023-02-16T09:36:21;98722.44;;;4.44;51.02
63568;BME280;49715;42.386;20.434;2023-02-16T09:38:48;98728.94;;;4.52;50.86
63568;BME280;49715;42.386;20.434;2023-02-16T09:43:58;98719.88;;;4.75;51.98
63568;BME280;49715;42.386;20.434;2023-02-16T09:46:27;98710.47;;;4.88;51.58
63568;BME280;49715;42.386;20.434;2023-02-16T09:48:54;98703.38;;;5.06;51.37
63568;BME280;49715;42.386;20.434;2023-02-16T09:51:26;98703.38;;;5.22;51.44
63568;BME280;49715;42.386;20.434;2023-02-16T09:54:00;98702.41;;;5.39;51.49
63568;BME280;49715;42.386;20.434;2023-02-16T09:56:36;98711.16;;;5.54;52.42
63568;BME280;49715;42.386;20.434;2023-02-16T09:59:10;98708.75;;;5.65;51.66
63568;BME280;49715;42.386;20.434;2023-02-16T10:01:44;98702.00;;;5.77;51.09
63568;BME280;49715;42.386;20.434;2023-02-16T10:04:23;98696.88;;;5.89;50.99
63568;BME280;49715;42.386;20.434;2023-02-16T10:07:01;98697.88;;;6.03;50.77
63568;BME280;49715;42.386;20.434;2023-02-16T10:09:32;98694.22;;;6.19;50.66
63568;BME280;49715;42.386;20.434;2023-02-16T10:12:01;98690.50;;;6.38;50.17
63568;BME280;49715;42.386;20.434;2023-02-16T10:17:03;98679.84;;;6.69;49.66
63568;BME280;49715;42.386;20.434;2023-02-16T10:19:34;98675.41;;;6.84;50.21
63568;BME280;49715;42.386;20.434;2023-02-16T10:22:04;98665.91;;;6.96;49.47
63568;BME280;49715;42.386;20.434;2023-02-16T10:24:54;98668.63;;;7.09;49.31
63568;BME280;49715;42.386;20.434;2023-02-16T10:27:22;98658.16;;;7.21;48.58
63568;BME280;49715;42.386;20.434;2023-02-16T10:29:56;98657.38;;;7.34;48.08
63568;BME280;49715;42.386;20.434;2023-02-16T10:32:26;98655.72;;;7.45;47.86
63568;BME280;49715;42.386;20.434;2023-02-16T10:34:59;98645.91;;;7.62;47.78
63568;BME280;49715;42.386;20.434;2023-02-16T10:37:48;98650.84;;;7.79;47.50
63568;BME280;49715;42.386;20.434;2023-02-16T10:43:04;98644.78;;;8.17;46.85
63568;BME280;49715;42.386;20.434;2023-02-16T10:45:34;98637.41;;;8.35;46.35
63568;BME280;49715;42.386;20.434;2023-02-16T10:48:02;98630.28;;;8.49;46.34
63568;BME280;49715;42.386;20.434;2023-02-16T10:50:31;98634.34;;;8.66;45.86
63568;BME280;49715;42.386;20.434;2023-02-16T10:53:00;98621.03;;;8.81;45.27
63568;BME280;49715;42.386;20.434;2023-02-16T10:55:29;98620.88;;;8.95;45.29
63568;BME280;49715;42.386;20.434;2023-02-16T10:57:56;98616.63;;;9.05;45.34
63568;BME280;49715;42.386;20.434;2023-02-16T11:00:32;98616.69;;;9.16;45.05
63568;BME280;49715;42.386;20.434;2023-02-16T11:03:05;98617.13;;;9.34;44.98
63568;BME280;49715;42.386;20.434;2023-02-16T11:05:38;98605.31;;;9.51;45.00
63568;BME280;49715;42.386;20.434;2023-02-16T11:08:06;98601.56;;;9.66;44.48
63568;BME280;49715;42.386;20.434;2023-02-16T11:12:59;98593.56;;;9.90;43.92
63568;BME280;49715;42.386;20.434;2023-02-16T11:15:27;98594.44;;;10.02;44.42
63568;BME280;49715;42.386;20.434;2023-02-16T11:18:01;98585.47;;;10.16;44.63
63568;BME280;49715;42.386;20.434;2023-02-16T11:26:04;98580.22;;;10.49;43.02
63568;BME280;49715;42.386;20.434;2023-02-16T11:28:38;98575.97;;;10.58;43.82
63568;BME280;49715;42.386;20.434;2023-02-16T11:31:10;98573.06;;;10.72;43.46
63568;BME280;49715;42.386;20.434;2023-02-16T11:33:37;98569.94;;;10.90;43.79
63568;BME280;49715;42.386;20.434;2023-02-16T11:36:19;98564.81;;;11.09;43.78
63568;BME280;49715;42.386;20.434;2023-02-16T11:39:01;98555.41;;;11.27;43.24
63568;BME280;49715;42.386;20.434;2023-02-16T11:41:31;98554.44;;;11.49;43.14
63568;BME280;49715;42.386;20.434;2023-02-16T11:44:22;98551.38;;;11.75;43.01
63568;BME280;49715;42.386;20.434;2023-02-16T11:47:35;98549.88;;;12.03;42.25
63568;BME280;49715;42.386;20.434;2023-02-16T11:52:48;98545.81;;;12.29;41.92
63568;BME280;49715;42.386;20.434;2023-02-16T11:55:29;98536.25;;;12.48;41.68
63568;BME280;49715;42.386;20.434;2023-02-16T11:58:22;98531.84;;;12.58;41.52
63568;BME280;49715;42.386;20.434;2023-02-16T12:14:20;98491.53;;;13.71;41.40
63568;BME280;49715;42.386;20.434;2023-02-16T12:19:45;98483.75;;;14.06;40.16
63568;BME280;49715;42.386;20.434;2023-02-16T12:29:55;98461.53;;;14.80;39.47
63568;BME280;49715;42.386;20.434;2023-02-16T12:37:29;98450.97;;;15.32;38.30
63568;BME280;49715;42.386;20.434;2023-02-16T12:45:23;98445.13;;;15.73;38.79
63568;BME280;49715;42.386;20.434;2023-02-16T12:50:33;98435.91;;;15.93;39.28
63568;BME280;49715;42.386;20.434;2023-02-16T12:55:31;98432.50;;;16.17;38.63
63568;BME280;49715;42.386;20.434;2023-02-16T12:58:06;98418.72;;;16.30;38.21
63568;BME280;49715;42.386;20.434;2023-02-16T13:00:40;98422.09;;;16.48;38.38
63568;BME280;49715;42.386;20.434;2023-02-16T13:03:19;98421.81;;;16.59;38.23
63568;BME280;49715;42.386;20.434;2023-02-16T13:05:56;98413.97;;;16.66;38.74
63568;BME280;49715;42.386;20.434;2023-02-16T13:11:04;98419.00;;;16.85;40.34
63568;BME280;49715;42.386;20.434;2023-02-16T13:13:36;98413.50;;;16.87;38.15
63568;BME280;49715;42.386;20.434;2023-02-16T13:18:43;98406.53;;;17.10;38.69
63568;BME280;49715;42.386;20.434;2023-02-16T13:37:32;98392.00;;;17.37;37.10
63568;BME280;49715;42.386;20.434;2023-02-16T13:43:12;98393.28;;;17.58;39.42
63568;BME280;49715;42.386;20.434;2023-02-16T13:45:40;98382.25;;;17.61;38.57
63568;BME280;49715;42.386;20.434;2023-02-16T13:48:12;98382.06;;;17.70;37.93
63568;BME280;49715;42.386;20.434;2023-02-16T13:50:44;98386.03;;;17.83;37.18
63568;BME280;49715;42.386;20.434;2023-02-16T13:53:17;98383.28;;;17.99;37.66
63568;BME280;49715;42.386;20.434;2023-02-16T13:55:44;98382.75;;;18.12;36.21
63568;BME280;49715;42.386;20.434;2023-02-16T14:00:43;98376.34;;;18.44;36.52
63568;BME280;49715;42.386;20.434;2023-02-16T14:05:50;98375.44;;;18.60;36.03
63568;BME280;49715;42.386;20.434;2023-02-16T14:08:25;98375.06;;;18.63;36.70
63568;BME280;49715;42.386;20.434;2023-02-16T14:11:03;98373.19;;;18.71;38.04
63568;BME280;49715;42.386;20.434;2023-02-16T14:16:10;98360.47;;;18.73;36.69
63568;BME280;49715;42.386;20.434;2023-02-16T14:18:47;98362.25;;;18.81;35.22
63568;BME280;49715;42.386;20.434;2023-02-16T14:21:41;98362.84;;;18.91;37.63
63568;BME280;49715;42.386;20.434;2023-02-16T14:24:10;98373.63;;;18.98;37.73
63568;BME280;49715;42.386;20.434;2023-02-16T14:26:49;98370.31;;;18.96;37.59
63568;BME280;49715;42.386;20.434;2023-02-16T14:29:17;98363.47;;;18.93;36.33
63568;BME280;49715;42.386;20.434;2023-02-16T14:32:05;98358.78;;;18.95;37.53
63568;BME280;49715;42.386;20.434;2023-02-16T14:34:39;98358.25;;;19.00;35.93
63568;BME280;49715;42.386;20.434;2023-02-16T14:39:43;98362.09;;;18.97;37.19
63568;BME280;49715;42.386;20.434;2023-02-16T14:42:15;98360.50;;;18.88;39.50
63568;BME280;49715;42.386;20.434;2023-02-16T14:50:16;98362.09;;;18.60;39.00
63568;BME280;49715;42.386;20.434;2023-02-16T15:01:09;98348.72;;;18.60;37.74
63568;BME280;49715;42.386;20.434;2023-02-16T15:03:47;98350.69;;;18.66;38.16
63568;BME280;49715;42.386;20.434;2023-02-16T15:06:37;98354.19;;;18.66;36.64
63568;BME280;49715;42.386;20.434;2023-02-16T15:09:04;98360.84;;;18.70;37.66
63568;BME280;49715;42.386;20.434;2023-02-16T15:11:35;98351.47;;;18.74;36.36
63568;BME280;49715;42.386;20.434;2023-02-16T15:14:22;98354.78;;;18.76;37.26
63568;BME280;49715;42.386;20.434;2023-02-16T15:16:50;98347.78;;;18.75;37.50
63568;BME280;49715;42.386;20.434;2023-02-16T15:19:20;98351.00;;;18.71;37.41
63568;BME280;49715;42.386;20.434;2023-02-16T15:22:07;98352.88;;;18.62;36.02